Aeroporto :
LOGIN :

Iscrizione | Disclaimer

   EN    FR    IT 

 










Sommario :    VFR   VFR Marginale   IFR   IFR Intensivo   IFR Molto Intensivo
Visibilità : 
Base nubi : 
>= 8 km
>= 3000ft
5 / 8 km
1000 / 3000 ft
1500m / 5 km
500 / 1000 ft
800 / 1500m
200 / 500 ft
< 800m
< 200 ft
Simboli :   Temporali  Nebbia  Neve Forte  Precipitazioni Forti  Vento > 20 kt
SIGMETs :   Varie  Temporali  Ghiacco  Turbolenza  Onda orograficha  Ceneri Vulcaniche






- Altitudine del aeroporto : 53 ft
- Codice IATA : AGP


LEMG - Malaga

ULTIMO METAR :
  • 270230Z 27018KT CAVOK 16/04 Q1021 NOSIG

METARs OBSOLETI :
  • 270200Z 28015KT CAVOK 16/05 Q1021 NOSIG
  • 270130Z 28015KT CAVOK 16/06 Q1021 NOSIG
  • 270100Z 29016KT 250V320 CAVOK 16/06 Q1021 NOSIG
  • 270030Z 29013KT CAVOK 16/06 Q1021 NOSIG
  • 270000Z 30015KT CAVOK 16/06 Q1021 NOSIG
  • 262330Z 29013KT CAVOK 17/07 Q1022 NOSIG

TAF TAF LEMG
Valido dal 27 a 00 ore il 28 a 00 ore UTC


262300Z 2700/2724 29012KT CAVOK TX24/2714Z TN12/2706Z
PROB30
TEMPO 2704/2711 28015G25KT



MetMap, La meteo Aeronautica in un colpo d'occhio ! - Copyright ORBIFLY Dicembre 2007 - Disclaimer

ORBIFLY MET'MAP TEAM :

Programmazione e sviluppo : Alexandra Zaïnal
Concezione : Baudouin d'Aumeries
Aiuto per la programmazione : Marc-Olivier Méhu
Supporto tecnico e logistico : Manuel Goepfert
Aiuto per la traduzione : Arnaldo La Scala

Contatto : metmap@orbifly.com




FONTI E CREDITI :

   NOAA